Time;durP1;ratioP1;P1;durP2;ratioP2;P2;SDS_P1;SDS_P2;PMS_P1;PMS_P2;Temp;Humidity;BMP_temperature;BMP_pressure;BME280_temperature;BME280_humidity;BME280_pressure;Samples;Min_cycle;Max_cycle;Signal;HPM_P1;HPM_P2
2021/12/07 00:00:58;;;;;;;4.32;2.22;;;-4.00;99.90;;;;;;4897513;29;20390;-79
2021/12/07 00:03:26;;;;;;;2.63;1.87;;;-4.00;99.90;;;;;;4885739;29;20048;-79
2021/12/07 00:05:54;;;;;;;2.33;1.77;;;-4.00;99.90;;;;;;4887622;29;20044;-79
2021/12/07 00:08:21;;;;;;;2.80;1.95;;;-4.00;99.90;;;;;;4888474;29;20053;-79
2021/12/07 00:10:50;;;;;;;1.27;1.03;;;-4.10;99.90;;;;;;4884925;29;20777;-79
2021/12/07 00:13:18;;;;;;;1.77;1.30;;;-4.00;99.90;;;;;;4887701;29;20056;-79
2021/12/07 00:15:46;;;;;;;2.47;1.60;;;-4.00;99.90;;;;;;4884476;29;20123;-79
2021/12/07 00:18:13;;;;;;;2.03;1.60;;;-4.10;99.90;;;;;;4883927;29;20052;-79
2021/12/07 00:20:41;;;;;;;2.08;1.60;;;-4.00;99.90;;;;;;4884199;29;20076;-79
2021/12/07 00:23:10;;;;;;;2.27;1.70;;;-4.00;99.90;;;;;;4881027;29;20471;-80
2021/12/07 00:25:38;;;;;;;2.77;2.07;;;-4.00;99.90;;;;;;4886785;29;20049;-80
2021/12/07 00:28:05;;;;;;;3.23;2.00;;;-4.10;99.90;;;;;;4886850;29;20515;-81
2021/12/07 00:30:34;;;;;;;2.23;2.03;;;-4.00;99.90;;;;;;4883835;29;20048;-79
2021/12/07 00:33:19;;;;;;;2.93;1.90;;;-4.00;99.90;;;;;;4887009;29;20072;-77
2021/12/07 00:35:46;;;;;;;2.23;1.80;;;-4.00;99.90;;;;;;4872011;29;20374;-77
2021/12/07 00:38:20;;;;;;;2.67;1.90;;;-4.00;99.90;;;;;;4888113;29;20396;-77
2021/12/07 00:40:49;;;;;;;3.83;2.23;;;-4.00;99.90;;;;;;4895230;29;20147;-77
2021/12/07 00:43:16;;;;;;;2.77;1.70;;;-4.00;99.90;;;;;;4887181;29;20063;-77
2021/12/07 00:45:45;;;;;;;2.17;1.83;;;-4.00;99.90;;;;;;4883836;29;20048;-77
2021/12/07 00:48:15;;;;;;;1.67;1.55;;;-4.00;99.90;;;;;;4886493;29;20049;-77
2021/12/07 00:50:45;;;;;;;2.65;1.70;;;-4.00;99.90;;;;;;4885887;29;20056;-77
2021/12/07 00:53:13;;;;;;;2.30;2.10;;;-4.00;99.90;;;;;;4884054;29;20490;-77
2021/12/07 00:55:44;;;;;;;1.93;1.67;;;-4.00;99.90;;;;;;4885832;29;20592;-81
2021/12/07 00:58:19;;;;;;;2.30;2.00;;;-4.00;99.90;;;;;;4888061;29;20123;-79
2021/12/07 01:01:01;;;;;;;2.97;2.53;;;-4.00;99.90;;;;;;4880441;29;20064;-80
2021/12/07 01:03:29;;;;;;;2.20;1.80;;;-4.00;99.90;;;;;;4887066;29;20064;-80
2021/12/07 01:06:25;;;;;;;1.90;1.70;;;-4.00;99.90;;;;;;4885603;29;20045;-79
2021/12/07 01:25:19;;;;;;;1.60;1.50;;;-4.00;99.90;;;;;;4885870;29;20469;-79
2021/12/07 01:27:49;;;;;;;2.37;2.17;;;-4.00;99.90;;;;;;4886205;29;20063;-78
2021/12/07 01:30:21;;;;;;;2.63;2.15;;;-4.00;99.90;;;;;;4886231;29;20041;-78
2021/12/07 01:33:17;;;;;;;2.77;2.23;;;-4.10;99.90;;;;;;4882312;29;20532;-78
2021/12/07 01:47:23;;;;;;;2.27;1.73;;;-4.40;99.90;;;;;;4888451;29;20490;-79
2021/12/07 02:00:27;;;;;;;2.20;2.00;;;-4.50;99.90;;;;;;4889024;29;20052;-79
2021/12/07 02:02:54;;;;;;;1.90;1.50;;;-4.50;99.90;;;;;;4887588;29;20176;-79
2021/12/07 02:05:22;;;;;;;1.83;1.73;;;-4.50;99.90;;;;;;4889651;29;20144;-79
2021/12/07 02:07:50;;;;;;;2.83;2.53;;;-4.50;99.90;;;;;;4901916;29;20056;-79
2021/12/07 02:10:23;;;;;;;2.87;2.33;;;-4.50;99.90;;;;;;4874422;29;20077;-79
2021/12/07 02:13:01;;;;;;;3.23;2.27;;;-4.50;99.90;;;;;;4901268;29;20148;-79
2021/12/07 02:15:30;;;;;;;1.87;1.63;;;-4.50;99.90;;;;;;4888818;29;20132;-79
2021/12/07 02:17:57;;;;;;;1.80;1.70;;;-4.50;99.90;;;;;;4881667;29;20044;-79
2021/12/07 02:20:29;;;;;;;2.37;1.70;;;-4.50;99.90;;;;;;4887031;29;20136;-79
2021/12/07 02:22:57;;;;;;;5.47;2.83;;;-4.50;99.90;;;;;;4870510;29;20545;-79
2021/12/07 02:25:24;;;;;;;3.03;2.23;;;-4.50;99.90;;;;;;4890566;29;20732;-79
2021/12/07 02:27:53;;;;;;;2.30;2.07;;;-4.50;99.90;;;;;;4882756;29;20083;-79
2021/12/07 02:30:24;;;;;;;2.90;2.37;;;-4.50;99.90;;;;;;4890282;29;20151;-79
2021/12/07 02:32:54;;;;;;;3.67;1.93;;;-4.50;99.90;;;;;;4887283;29;20518;-79
2021/12/07 02:35:26;;;;;;;2.45;2.25;;;-4.50;99.90;;;;;;4904357;29;20150;-79
2021/12/07 02:37:58;;;;;;;3.87;2.67;;;-4.50;99.90;;;;;;4887194;29;20044;-79
2021/12/07 02:40:28;;;;;;;3.27;2.27;;;-4.50;99.90;;;;;;4902205;29;20048;-79
2021/12/07 02:42:56;;;;;;;5.83;2.03;;;-4.60;99.90;;;;;;4886671;29;20108;-79
2021/12/07 02:45:23;;;;;;;3.37;1.93;;;-4.60;99.90;;;;;;4889621;29;20163;-79
2021/12/07 02:47:51;;;;;;;2.70;2.30;;;-4.60;99.90;;;;;;4887342;29;20100;-79
2021/12/07 02:50:19;;;;;;;3.33;2.57;;;-4.60;99.90;;;;;;4889385;29;20134;-79
2021/12/07 02:52:46;;;;;;;2.10;1.60;;;-4.60;99.90;;;;;;4897017;29;20053;-79
2021/12/07 02:55:14;;;;;;;2.43;1.90;;;-4.60;99.90;;;;;;4882427;29;20045;-79
2021/12/07 02:57:43;;;;;;;4.23;2.10;;;-4.60;99.90;;;;;;4878451;29;20051;-79
2021/12/07 03:00:17;;;;;;;3.47;1.93;;;-4.60;99.90;;;;;;4902868;29;20413;-79
2021/12/07 03:02:54;;;;;;;2.63;1.60;;;-4.60;99.90;;;;;;4883016;29;20037;-79
2021/12/07 03:05:50;;;;;;;4.07;1.60;;;-4.60;99.90;;;;;;4883638;29;20055;-79
2021/12/07 03:09:05;;;;;;;1.70;1.60;;;-4.50;99.90;;;;;;4888706;29;20072;-79
2021/12/07 03:28:12;;;;;;;2.60;1.37;;;-4.50;99.90;;;;;;4896108;29;20037;-79
2021/12/07 03:30:40;;;;;;;2.27;1.50;;;-4.50;99.90;;;;;;4870009;29;20482;-79
2021/12/07 03:33:08;;;;;;;2.37;1.87;;;-4.50;99.90;;;;;;4902987;29;20131;-79
2021/12/07 03:35:35;;;;;;;3.87;2.40;;;-4.50;99.90;;;;;;4900795;29;20041;-79
2021/12/07 03:38:04;;;;;;;4.33;1.93;;;-4.50;99.90;;;;;;4904400;29;20577;-79
2021/12/07 03:40:32;;;;;;;1.93;1.70;;;-4.60;99.90;;;;;;4888118;29;20048;-79
2021/12/07 03:43:00;;;;;;;4.40;3.03;;;-4.60;99.90;;;;;;4881261;29;20064;-78
2021/12/07 03:45:31;;;;;;;1.63;1.52;;;-4.60;99.90;;;;;;4903313;29;20044;-78
2021/12/07 03:48:00;;;;;;;;;;;-4.60;99.90;;;;;;4894412;29;20052;-78
2021/12/07 03:50:28;;;;;;;2.53;1.73;;;-4.60;99.90;;;;;;4884572;29;19938;-78
2021/12/07 03:52:55;;;;;;;1.60;1.50;;;-4.60;99.90;;;;;;4874328;29;20049;-78
2021/12/07 03:55:23;;;;;;;2.40;1.77;;;-4.60;99.90;;;;;;4887710;29;20124;-79
2021/12/07 03:57:50;;;;;;;2.33;1.83;;;-4.60;99.90;;;;;;4883655;29;20123;-79
2021/12/07 04:00:22;;;;;;;2.87;2.10;;;-4.60;99.90;;;;;;4901072;29;20079;-78
2021/12/07 04:02:54;;;;;;;3.60;2.07;;;-4.60;99.90;;;;;;4899844;29;20233;-78
2021/12/07 04:05:24;;;;;;;2.73;2.27;;;-4.50;99.90;;;;;;4898412;29;20048;-79
2021/12/07 04:07:52;;;;;;;2.90;2.43;;;-4.60;99.90;;;;;;4884114;29;20052;-79
2021/12/07 04:10:22;;;;;;;3.03;2.70;;;-4.50;99.90;;;;;;4886563;29;20148;-77
2021/12/07 04:12:50;;;;;;;2.17;1.90;;;-4.50;99.90;;;;;;4882083;29;20040;-77
2021/12/07 04:15:18;;;;;;;4.23;2.27;;;-4.50;99.90;;;;;;4885177;29;20376;-78
2021/12/07 04:17:45;;;;;;;4.17;3.10;;;-4.50;99.90;;;;;;4887501;29;20064;-78
2021/12/07 04:20:17;;;;;;;2.93;2.53;;;-4.60;99.90;;;;;;4884654;29;20056;-78
2021/12/07 04:22:44;;;;;;;2.85;2.30;;;-4.50;99.90;;;;;;4886732;29;20144;-78
2021/12/07 04:25:13;;;;;;;2.77;2.43;;;-4.50;99.90;;;;;;4880844;29;20475;-78
2021/12/07 04:27:40;;;;;;;2.63;2.30;;;-4.50;99.90;;;;;;4882267;29;20053;-78
2021/12/07 04:30:31;;;;;;;3.20;2.57;;;-4.50;99.90;;;;;;4887976;29;20055;-78
2021/12/07 04:33:00;;;;;;;4.20;3.20;;;-4.50;99.90;;;;;;4883063;29;20048;-78
2021/12/07 04:35:28;;;;;;;4.67;2.60;;;-4.50;99.90;;;;;;4886632;29;20052;-78
2021/12/07 04:37:56;;;;;;;3.47;3.17;;;-4.50;99.90;;;;;;4903986;29;20041;-78
2021/12/07 04:40:26;;;;;;;3.60;3.13;;;-4.60;99.90;;;;;;4885582;29;20107;-78
2021/12/07 04:42:54;;;;;;;2.53;1.98;;;-4.60;99.90;;;;;;4881617;29;20096;-78
2021/12/07 04:59:16;;;;;;;3.63;3.00;;;-4.70;99.90;;;;;;4881001;29;20535;-78
2021/12/07 05:01:44;;;;;;;3.93;2.33;;;-4.60;99.90;;;;;;4887223;29;20059;-78
2021/12/07 05:04:16;;;;;;;4.40;2.87;;;-4.60;99.90;;;;;;4884996;29;20048;-79
2021/12/07 05:06:49;;;;;;;3.87;3.10;;;-4.60;99.90;;;;;;4885843;29;20045;-78
2021/12/07 05:09:41;;;;;;;3.57;2.30;;;-4.60;99.90;;;;;;4895147;29;20049;-78
2021/12/07 05:14:41;;;;;;;4.28;3.67;;;-4.60;99.90;;;;;;4885264;29;20135;-78
2021/12/07 05:17:23;;;;;;;7.80;3.70;;;-4.70;99.90;;;;;;4873410;29;20120;-78
2021/12/07 05:39:06;;;;;;;4.83;2.30;;;-4.80;99.90;;;;;;4891711;29;20052;-78
2021/12/07 05:41:33;;;;;;;6.90;3.60;;;-4.80;99.90;;;;;;4904757;29;20056;-77
2021/12/07 05:44:02;;;;;;;6.63;4.60;;;-4.90;99.90;;;;;;4875755;29;20561;-78
2021/12/07 05:46:29;;;;;;;5.47;4.13;;;-4.90;99.90;;;;;;4890898;29;20061;-78
2021/12/07 05:48:56;;;;;;;4.53;3.53;;;-4.90;99.90;;;;;;4896444;29;20097;-78
2021/12/07 05:51:23;;;;;;;4.33;3.47;;;-4.90;99.90;;;;;;4892369;29;20060;-77
2021/12/07 05:53:50;;;;;;;4.17;3.40;;;-4.90;99.90;;;;;;4893453;29;20104;-78
2021/12/07 05:56:17;;;;;;;3.27;2.97;;;-4.90;99.90;;;;;;4888615;29;20109;-77
2021/12/07 05:58:44;;;;;;;7.93;3.20;;;-4.90;99.90;;;;;;4886506;29;20040;-77
2021/12/07 06:01:12;;;;;;;3.23;2.93;;;-4.90;99.90;;;;;;4886765;29;20131;-78
2021/12/07 06:03:39;;;;;;;4.77;3.50;;;-4.90;99.90;;;;;;4895623;29;20037;-78
2021/12/07 06:06:09;;;;;;;6.78;3.22;;;-5.00;99.90;;;;;;4891388;29;20131;-78
2021/12/07 06:08:36;;;;;;;3.70;2.90;;;-5.00;99.90;;;;;;4891936;29;20518;-78
2021/12/07 06:11:03;;;;;;;5.90;3.47;;;-5.00;99.90;;;;;;4891768;29;20507;-78
2021/12/07 06:13:30;;;;;;;4.30;3.90;;;-4.90;99.90;;;;;;4904643;29;20104;-78
2021/12/07 06:16:04;;;;;;;5.77;4.10;;;-5.00;99.90;;;;;;4891771;29;20059;-77
2021/12/07 06:18:31;;;;;;;4.67;3.43;;;-5.00;99.90;;;;;;4900741;29;20493;-78
2021/12/07 06:20:58;;;;;;;5.20;3.50;;;-5.00;99.90;;;;;;4888959;29;20048;-78
2021/12/07 06:23:25;;;;;;;7.30;5.60;;;-5.00;99.90;;;;;;4894219;29;20736;-78
2021/12/07 06:25:54;;;;;;;5.83;5.27;;;-5.00;99.90;;;;;;4888065;29;20040;-78
2021/12/07 06:28:21;;;;;;;6.03;5.43;;;-5.10;99.90;;;;;;4887092;29;20060;-78
2021/12/07 06:30:49;;;;;;;5.43;4.50;;;-5.10;99.90;;;;;;4887837;29;20079;-77
2021/12/07 06:33:19;;;;;;;6.13;4.30;;;-5.10;99.90;;;;;;4885209;29;20132;-77
2021/12/07 06:35:49;;;;;;;5.18;3.58;;;-5.10;99.90;;;;;;4884953;29;20049;-77
2021/12/07 06:38:18;;;;;;;;;;;-5.10;99.90;;;;;;4890144;29;20045;-77
2021/12/07 06:40:45;;;;;;;7.53;5.57;;;-5.00;99.90;;;;;;4889887;29;20000;-77
2021/12/07 06:43:12;;;;;;;8.90;7.03;;;-5.00;99.90;;;;;;4903133;29;20053;-77
2021/12/07 06:45:39;;;;;;;8.57;5.73;;;-5.00;99.90;;;;;;4905032;29;20033;-78
2021/12/07 06:48:07;;;;;;;8.03;6.50;;;-5.00;99.90;;;;;;4902869;29;20056;-78
2021/12/07 06:50:36;;;;;;;6.60;5.10;;;-5.00;99.90;;;;;;4887172;29;20131;-78
2021/12/07 06:53:03;;;;;;;6.53;5.93;;;-5.00;99.90;;;;;;4901814;29;20117;-78
2021/12/07 06:55:31;;;;;;;6.73;5.07;;;-5.10;99.90;;;;;;4902998;29;20045;-78
2021/12/07 06:57:58;;;;;;;5.70;4.97;;;-5.00;99.90;;;;;;4887909;29;20047;-78
2021/12/07 07:00:26;;;;;;;6.47;5.13;;;-5.00;99.90;;;;;;4901865;29;20053;-78
2021/12/07 07:02:53;;;;;;;5.33;3.50;;;-5.00;99.90;;;;;;4885711;29;20108;-78
2021/12/07 07:05:21;;;;;;;4.60;3.67;;;-5.00;99.90;;;;;;4884287;29;20459;-78
2021/12/07 07:07:48;;;;;;;5.03;3.67;;;-5.00;99.90;;;;;;4883543;29;20052;-78
2021/12/07 07:10:18;;;;;;;9.27;4.27;;;-5.00;99.90;;;;;;4887089;29;20136;-78
2021/12/07 07:12:46;;;;;;;6.20;5.13;;;-5.00;99.90;;;;;;4888187;29;20048;-77
2021/12/07 07:15:16;;;;;;;6.37;5.43;;;-5.00;99.90;;;;;;4886180;29;20055;-78
2021/12/07 07:17:43;;;;;;;6.63;5.80;;;-5.00;99.90;;;;;;4872203;29;20044;-78
2021/12/07 07:20:13;;;;;;;7.07;4.50;;;-4.90;99.90;;;;;;4889222;29;21161;-78
2021/12/07 07:22:41;;;;;;;7.47;4.20;;;-5.00;99.90;;;;;;4889298;29;20189;-77
2021/12/07 07:25:09;;;;;;;6.10;4.97;;;-5.00;99.90;;;;;;4886432;29;20087;-77
2021/12/07 07:27:36;;;;;;;8.40;5.30;;;-5.00;99.90;;;;;;4884065;29;20037;-76
2021/12/07 07:30:05;;;;;;;13.43;7.37;;;-4.90;99.90;;;;;;4895100;29;20820;-76
2021/12/07 07:32:33;;;;;;;11.17;6.83;;;-4.90;99.90;;;;;;4887098;29;20076;-78
2021/12/07 07:35:00;;;;;;;8.83;7.03;;;-4.90;99.90;;;;;;4887073;29;20092;-78
2021/12/07 07:37:27;;;;;;;10.03;6.30;;;-4.90;99.90;;;;;;4875000;29;20053;-78
2021/12/07 07:39:55;;;;;;;9.67;6.07;;;-4.90;99.90;;;;;;4876987;29;20410;-78
2021/12/07 07:42:22;;;;;;;13.40;6.37;;;-4.80;99.90;;;;;;4887035;29;20144;-78
2021/12/07 07:45:10;;;;;;;6.50;5.10;;;-4.80;99.90;;;;;;4883027;29;20140;-78
2021/12/07 07:47:38;;;;;;;5.53;4.10;;;-4.80;99.90;;;;;;4902332;29;20055;-78
2021/12/07 07:50:07;;;;;;;5.70;4.10;;;-4.80;99.90;;;;;;4888884;29;20056;-78
2021/12/07 07:52:34;;;;;;;4.60;4.03;;;-4.70;99.90;;;;;;4885165;29;20060;-77
2021/12/07 07:55:03;;;;;;;4.73;3.73;;;-4.70;99.90;;;;;;4880737;29;20044;-78
2021/12/07 07:57:30;;;;;;;5.13;3.60;;;-4.60;99.90;;;;;;4888005;29;20140;-77
2021/12/07 07:59:57;;;;;;;5.53;4.17;;;-4.60;99.90;;;;;;4881845;29;20041;-77
2021/12/07 08:02:24;;;;;;;5.50;4.70;;;-4.60;99.90;;;;;;4887553;29;20139;-76
2021/12/07 08:04:51;;;;;;;10.53;6.70;;;-4.60;99.90;;;;;;4882109;29;20049;-76
2021/12/07 08:07:18;;;;;;;10.10;6.63;;;-4.60;99.90;;;;;;4902038;29;20504;-78
2021/12/07 08:09:46;;;;;;;8.33;6.70;;;-4.60;99.90;;;;;;4886984;29;20044;-78
2021/12/07 08:12:13;;;;;;;12.07;5.50;;;-4.50;99.90;;;;;;4887023;29;20179;-77
2021/12/07 08:14:40;;;;;;;7.77;4.90;;;-4.50;99.90;;;;;;4884380;29;20104;-77
2021/12/07 08:17:07;;;;;;;12.37;5.57;;;-4.50;99.90;;;;;;4870735;29;20047;-77
2021/12/07 08:19:34;;;;;;;12.33;5.53;;;-4.50;99.90;;;;;;4886672;29;20103;-77
2021/12/07 08:22:02;;;;;;;8.13;6.03;;;-4.50;99.90;;;;;;4887384;29;20048;-77
2021/12/07 08:24:32;;;;;;;9.33;6.20;;;-4.50;99.90;;;;;;4882299;29;20056;-77
2021/12/07 08:26:59;;;;;;;9.53;6.10;;;-4.50;99.90;;;;;;4886434;29;20132;-78
2021/12/07 08:29:46;;;;;;;13.77;5.73;;;-4.50;99.90;;;;;;4900302;29;20048;-78
2021/12/07 08:32:13;;;;;;;10.90;5.77;;;-4.50;99.90;;;;;;4886437;29;20045;-78
2021/12/07 08:34:40;;;;;;;8.90;5.50;;;-4.50;99.90;;;;;;4902404;29;20059;-78
2021/12/07 08:37:07;;;;;;;13.10;6.27;;;-4.50;99.90;;;;;;4887229;29;20059;-78
2021/12/07 08:39:34;;;;;;;13.10;6.70;;;-4.60;99.90;;;;;;4886880;29;20135;-78
2021/12/07 08:42:03;;;;;;;10.67;6.70;;;-4.60;99.90;;;;;;4883984;29;20079;-78
2021/12/07 08:44:31;;;;;;;15.00;7.50;;;-4.60;99.90;;;;;;4887557;29;20067;-78
2021/12/07 08:46:58;;;;;;;19.63;9.93;;;-4.60;99.90;;;;;;4902624;29;20109;-76
2021/12/07 08:49:25;;;;;;;12.20;9.70;;;-4.60;99.90;;;;;;4895156;29;20049;-78
2021/12/07 08:51:53;;;;;;;21.93;10.67;;;-4.60;99.90;;;;;;4887133;29;20160;-78
2021/12/07 08:59:43;;;;;;;14.40;9.97;;;-4.70;99.90;;;;;;4886099;29;20131;-79
2021/12/07 09:02:14;;;;;;;10.43;8.67;;;-4.70;99.90;;;;;;4886751;29;20064;-80
2021/12/07 09:04:41;;;;;;;9.30;7.20;;;-4.70;99.90;;;;;;4885687;29;20434;-78
2021/12/07 09:07:09;;;;;;;8.90;6.83;;;-4.70;99.90;;;;;;4884312;29;20585;-79
2021/12/07 09:09:36;;;;;;;12.93;6.33;;;-4.80;99.90;;;;;;4885949;29;20563;-79
2021/12/07 09:12:09;;;;;;;9.03;6.20;;;-4.80;99.90;;;;;;4885689;29;20160;-79
2021/12/07 09:14:36;;;;;;;5.83;4.73;;;-4.80;99.90;;;;;;4882392;29;20045;-79
2021/12/07 09:17:05;;;;;;;5.10;4.00;;;-4.80;99.90;;;;;;4878606;29;20136;-77
2021/12/07 09:19:34;;;;;;;5.03;3.93;;;-4.80;99.90;;;;;;4884096;29;20073;-78
2021/12/07 09:22:02;;;;;;;6.77;5.00;;;-4.90;99.90;;;;;;4869962;29;20055;-77
2021/12/07 09:24:49;;;;;;;5.37;4.67;;;-4.80;99.90;;;;;;4898463;29;20052;-78
2021/12/07 09:27:16;;;;;;;5.63;4.77;;;-4.90;99.90;;;;;;4886834;29;20577;-78
2021/12/07 09:29:44;;;;;;;5.87;5.27;;;-4.80;99.90;;;;;;4902368;29;20135;-79
2021/12/07 09:32:11;;;;;;;7.37;5.53;;;-4.80;99.90;;;;;;4881895;29;20120;-79
2021/12/07 09:34:38;;;;;;;4.57;4.00;;;-4.80;99.90;;;;;;4901672;29;20045;-79
2021/12/07 09:37:05;;;;;;;5.20;4.50;;;-4.70;99.90;;;;;;4885120;29;21511;-77
2021/12/07 09:39:32;;;;;;;5.80;4.57;;;-4.50;99.90;;;;;;4896836;29;20053;-76
2021/12/07 09:41:59;;;;;;;6.33;4.80;;;-4.40;99.90;;;;;;4883238;29;20048;-77
2021/12/07 09:44:26;;;;;;;8.30;5.03;;;-4.30;99.90;;;;;;4901367;29;20516;-77
2021/12/07 09:46:53;;;;;;;5.00;4.00;;;-4.10;99.90;;;;;;4883520;29;20047;-77
2021/12/07 09:49:20;;;;;;;6.00;4.83;;;-4.10;99.90;;;;;;4902568;29;20388;-77
2021/12/07 09:51:47;;;;;;;4.07;3.67;;;-4.10;99.90;;;;;;4882021;29;20132;-77
2021/12/07 09:54:15;;;;;;;4.60;3.07;;;-4.00;99.90;;;;;;4884106;29;20064;-77
2021/12/07 09:56:42;;;;;;;5.97;4.30;;;-4.00;99.90;;;;;;4883481;29;20120;-77
2021/12/07 09:59:11;;;;;;;4.70;4.30;;;-4.10;99.90;;;;;;4886366;29;20066;-77
2021/12/07 10:01:41;;;;;;;5.60;3.53;;;-4.10;99.90;;;;;;4902205;29;20044;-77
2021/12/07 10:04:10;;;;;;;3.97;3.30;;;-4.10;99.90;;;;;;4889135;29;20079;-77
2021/12/07 10:06:37;;;;;;;3.50;3.00;;;-4.10;99.90;;;;;;4873977;29;20056;-77
2021/12/07 10:09:05;;;;;;;3.73;3.33;;;-4.10;99.90;;;;;;4881404;29;20045;-78
2021/12/07 10:11:33;;;;;;;3.97;3.43;;;-4.10;99.90;;;;;;4887850;29;20048;-76
2021/12/07 10:14:01;;;;;;;4.10;2.93;;;-4.10;99.90;;;;;;4890410;29;20124;-77
2021/12/07 10:16:28;;;;;;;6.50;3.83;;;-4.00;99.90;;;;;;4890340;29;20055;-77
2021/12/07 10:18:57;;;;;;;5.05;4.03;;;-3.90;99.90;;;;;;4902292;29;20371;-77
2021/12/07 10:21:27;;;;;;;4.53;4.13;;;-3.80;99.90;;;;;;4889485;29;20056;-77
2021/12/07 10:23:59;;;;;;;4.10;2.80;;;-3.70;99.90;;;;;;4887790;29;20056;-76
2021/12/07 10:26:29;;;;;;;4.22;3.05;;;-3.60;99.90;;;;;;4887191;29;20053;-77
2021/12/07 10:29:20;;;;;;;3.10;2.80;;;-3.50;99.90;;;;;;4888552;29;20550;-78
2021/12/07 10:31:54;;;;;;;3.77;2.90;;;-3.40;99.90;;;;;;4889564;29;20076;-77
2021/12/07 10:34:28;;;;;;;5.20;3.35;;;-3.30;99.90;;;;;;4901557;29;20053;-77
2021/12/07 10:37:14;;;;;;;4.43;3.92;;;-3.20;99.90;;;;;;4870683;29;20055;-77
2021/12/07 10:39:45;;;;;;;3.67;3.15;;;-3.10;99.90;;;;;;4884308;29;20045;-77
2021/12/07 10:42:25;;;;;;;5.03;3.28;;;-3.00;99.90;;;;;;4889655;29;20576;-77
2021/12/07 10:45:04;;;;;;;4.45;3.20;;;-2.90;99.90;;;;;;4886657;29;20079;-78
2021/12/07 10:47:31;;;;;;;3.72;3.35;;;-2.90;99.90;;;;;;4888459;29;20064;-79
2021/12/07 10:50:01;;;;;;;3.33;3.03;;;-2.90;99.90;;;;;;4889269;29;20053;-78
2021/12/07 10:52:30;;;;;;;3.47;1.98;;;-2.90;99.90;;;;;;4882544;29;20061;-78
2021/12/07 10:55:00;;;;;;;2.85;2.55;;;-2.90;99.90;;;;;;4902521;29;20071;-79
2021/12/07 10:57:43;;;;;;;3.67;3.28;;;-3.00;99.90;;;;;;4903340;29;20132;-79
2021/12/07 11:00:29;;;;;;;3.20;2.85;;;-3.00;99.90;;;;;;4901990;29;20545;-77
2021/12/07 11:03:20;;;;;;;4.82;3.78;;;-3.10;99.90;;;;;;4885419;29;20044;-79
2021/12/07 11:05:51;;;;;;;5.28;3.60;;;-3.10;99.90;;;;;;4889694;29;20049;-79
2021/12/07 11:08:25;;;;;;;4.15;2.85;;;-3.20;99.90;;;;;;4886791;29;20056;-78
2021/12/07 11:10:54;;;;;;;5.30;3.50;;;-3.20;99.90;;;;;;4879850;29;20055;-79
2021/12/07 11:13:34;;;;;;;3.22;2.92;;;-3.30;99.90;;;;;;4897942;29;20641;-79
2021/12/07 11:16:10;;;;;;;3.30;3.00;;;-3.30;99.90;;;;;;4890012;29;20076;-79
2021/12/07 11:18:44;;;;;;;3.78;2.67;;;-3.30;99.90;;;;;;4902373;29;20155;-78
2021/12/07 11:21:15;;;;;;;3.40;2.70;;;-3.20;99.90;;;;;;4888449;29;20071;-78
2021/12/07 11:23:47;;;;;;;2.57;2.37;;;-3.20;99.90;;;;;;4902876;29;20055;-78
2021/12/07 11:31:48;;;;;;;3.30;2.75;;;-3.20;99.90;;;;;;4880730;29;20471;-77
2021/12/07 11:34:21;;;;;;;2.38;2.15;;;-3.20;99.90;;;;;;4885845;29;20391;-78
2021/12/07 11:36:51;;;;;;;6.00;2.92;;;-3.20;99.90;;;;;;4876775;29;20140;-78
2021/12/07 11:39:20;;;;;;;3.13;2.47;;;-3.20;99.90;;;;;;4882724;29;20448;-77
2021/12/07 11:41:52;;;;;;;2.80;2.30;;;-3.30;99.90;;;;;;4885717;29;20044;-78
2021/12/07 11:44:21;;;;;;;3.13;2.40;;;-3.30;99.90;;;;;;4884569;29;20059;-78
2021/12/07 11:46:50;;;;;;;3.05;2.50;;;-3.20;99.90;;;;;;4884020;29;20040;-77
2021/12/07 11:49:24;;;;;;;4.25;2.33;;;-3.20;99.90;;;;;;4883577;29;20742;-77
2021/12/07 11:51:57;;;;;;;3.17;2.53;;;-3.10;99.90;;;;;;4885823;29;20044;-77
2021/12/07 11:54:28;;;;;;;3.20;2.72;;;-3.00;99.90;;;;;;4885119;29;20679;-77
2021/12/07 11:56:55;;;;;;;5.90;3.55;;;-3.00;99.90;;;;;;4900927;29;20060;-77
2021/12/07 11:59:22;;;;;;;3.70;2.50;;;-2.90;99.90;;;;;;4900382;29;20448;-77
2021/12/07 12:01:51;;;;;;;4.93;3.17;;;-2.70;99.90;;;;;;4886111;29;20103;-77
2021/12/07 12:04:19;;;;;;;7.70;2.00;;;-2.60;99.90;;;;;;4902026;29;20044;-77
2021/12/07 12:06:52;;;;;;;3.97;2.38;;;-2.50;99.90;;;;;;4883743;29;20116;-77
2021/12/07 12:09:22;;;;;;;2.58;2.10;;;-2.40;99.90;;;;;;4885210;29;20041;-78
2021/12/07 12:11:50;;;;;;;2.55;1.98;;;-2.30;99.90;;;;;;4878585;29;20048;-78
2021/12/07 12:14:38;;;;;;;2.90;2.10;;;-2.20;99.90;;;;;;4869126;29;20566;-77
2021/12/07 12:17:09;;;;;;;3.13;1.83;;;-2.20;99.90;;;;;;4883617;29;20059;-77
2021/12/07 12:19:53;;;;;;;2.03;1.30;;;-2.20;99.90;;;;;;4883688;29;20055;-77
2021/12/07 12:22:36;;;;;;;3.53;2.13;;;-2.20;99.90;;;;;;4889448;29;20041;-77
2021/12/07 12:25:08;;;;;;;2.78;1.40;;;-2.20;99.90;;;;;;4881469;29;20052;-78
2021/12/07 12:27:40;;;;;;;4.65;2.03;;;-2.10;99.90;;;;;;4884759;29;20048;-77
2021/12/07 12:30:28;;;;;;;2.78;1.98;;;-2.20;99.90;;;;;;4885116;29;20053;-78
2021/12/07 12:33:00;;;;;;;4.47;2.92;;;-2.20;99.90;;;;;;4893524;29;20049;-78
2021/12/07 12:35:31;;;;;;;4.13;2.47;;;-2.20;99.90;;;;;;4885859;29;20063;-78
2021/12/07 12:37:59;;;;;;;2.80;2.60;;;-2.30;99.90;;;;;;4902820;29;20075;-77
2021/12/07 12:40:32;;;;;;;3.22;2.45;;;-2.20;99.90;;;;;;4899918;29;20045;-77
2021/12/07 12:43:02;;;;;;;2.35;2.08;;;-2.30;99.90;;;;;;4894951;29;20033;-77
2021/12/07 12:45:31;;;;;;;2.33;2.13;;;-2.30;99.90;;;;;;4884440;29;20139;-77
2021/12/07 12:48:01;;;;;;;4.07;2.47;;;-2.40;99.90;;;;;;4897005;29;20064;-77
2021/12/07 12:50:35;;;;;;;2.72;2.30;;;-2.40;99.90;;;;;;4885200;29;20053;-77
2021/12/07 12:53:18;;;;;;;3.72;3.38;;;-2.40;99.90;;;;;;4886881;29;20149;-78
2021/12/07 12:56:05;;;;;;;4.55;3.00;;;-2.40;99.90;;;;;;4870602;29;20052;-77
2021/12/07 12:58:35;;;;;;;3.67;3.22;;;-2.40;99.90;;;;;;4904575;29;20055;-77
2021/12/07 13:01:09;;;;;;;3.90;3.10;;;-2.40;99.90;;;;;;4884555;29;20132;-77
2021/12/07 13:03:42;;;;;;;5.18;3.65;;;-2.50;99.90;;;;;;4903794;29;21372;-77
2021/12/07 13:06:18;;;;;;;4.97;3.20;;;-2.50;99.90;;;;;;4886704;29;20092;-77
2021/12/07 13:09:03;;;;;;;4.75;4.30;;;-2.60;99.90;;;;;;4882332;29;20079;-78
2021/12/07 13:11:50;;;;;;;4.88;3.40;;;-2.60;99.90;;;;;;4887294;29;20128;-78
2021/12/07 13:14:23;;;;;;;4.07;3.38;;;-2.70;99.90;;;;;;4887801;29;20478;-78
2021/12/07 13:17:19;;;;;;;8.05;4.10;;;-2.70;99.90;;;;;;4881137;29;20048;-78
2021/12/07 13:20:08;;;;;;;5.80;3.22;;;-2.70;99.90;;;;;;4861151;29;20144;-78
2021/12/07 13:22:36;;;;;;;5.05;3.17;;;-2.80;99.90;;;;;;4886817;29;20076;-78
2021/12/07 13:25:09;;;;;;;5.18;2.88;;;-2.80;99.90;;;;;;4882780;29;20044;-78
2021/12/07 13:27:36;;;;;;;5.65;4.22;;;-2.90;99.90;;;;;;4888369;29;20056;-77
2021/12/07 13:30:07;;;;;;;3.67;3.00;;;-2.90;99.90;;;;;;4886152;29;20120;-78
2021/12/07 13:32:34;;;;;;;5.88;3.80;;;-3.00;99.90;;;;;;4886758;29;20053;-78
2021/12/07 13:35:07;;;;;;;4.75;3.50;;;-3.00;99.90;;;;;;4879675;29;20111;-77
2021/12/07 13:37:46;;;;;;;6.43;3.95;;;-3.10;99.90;;;;;;4906110;29;20193;-77
2021/12/07 13:40:24;;;;;;;4.03;3.60;;;-3.10;99.90;;;;;;4890763;29;20041;-77
2021/12/07 13:42:53;;;;;;;5.35;3.95;;;-3.20;99.90;;;;;;4887301;29;20063;-77
2021/12/07 13:45:22;;;;;;;4.07;3.78;;;-3.30;99.90;;;;;;4883153;29;20061;-77
2021/12/07 13:47:52;;;;;;;5.30;4.80;;;-3.30;99.90;;;;;;4891462;29;20477;-77
2021/12/07 13:50:26;;;;;;;6.00;5.22;;;-3.40;99.90;;;;;;4890047;29;20055;-77
2021/12/07 13:52:55;;;;;;;8.20;4.88;;;-3.50;99.90;;;;;;4890228;29;20083;-77
2021/12/07 13:55:26;;;;;;;7.97;5.28;;;-3.60;99.90;;;;;;4889955;29;20052;-77
2021/12/07 13:57:54;;;;;;;6.95;4.90;;;-3.70;99.90;;;;;;4892679;29;20052;-78
2021/12/07 14:00:42;;;;;;;8.95;7.03;;;-3.70;99.90;;;;;;4897382;29;20048;-77
2021/12/07 14:03:12;;;;;;;10.30;6.17;;;-3.80;99.90;;;;;;4883822;29;20107;-77
2021/12/07 14:05:41;;;;;;;9.75;7.15;;;-3.90;99.90;;;;;;4888336;29;20195;-77
2021/12/07 14:08:12;;;;;;;8.57;7.22;;;-4.10;99.90;;;;;;4890356;29;20045;-77
2021/12/07 14:10:52;;;;;;;8.57;6.18;;;-4.10;99.90;;;;;;4888270;29;20060;-77
2021/12/07 14:13:20;;;;;;;13.13;9.40;;;-4.30;99.90;;;;;;4886300;29;20110;-77
2021/12/07 14:16:06;;;;;;;14.37;8.47;;;-4.40;99.90;;;;;;4892352;29;20143;-77
2021/12/07 14:18:35;;;;;;;13.40;9.27;;;-4.50;99.90;;;;;;4889653;29;20058;-77
2021/12/07 14:21:05;;;;;;;11.17;9.30;;;-4.50;99.90;;;;;;4888694;29;20120;-77
2021/12/07 14:23:37;;;;;;;10.00;8.77;;;-4.60;99.90;;;;;;4891341;29;20457;-77
2021/12/07 14:26:06;;;;;;;11.18;8.50;;;-4.70;99.90;;;;;;4888225;29;20053;-77
2021/12/07 14:28:44;;;;;;;10.10;7.17;;;-4.80;99.90;;;;;;4888565;29;20064;-77
2021/12/07 14:31:38;;;;;;;8.10;6.30;;;-4.80;99.90;;;;;;4902714;29;20044;-77
2021/12/07 14:34:05;;;;;;;7.33;6.20;;;-4.90;99.90;;;;;;4889813;29;20075;-77
2021/12/07 14:36:39;;;;;;;8.00;6.20;;;-5.00;99.90;;;;;;4887904;29;20056;-77
2021/12/07 14:39:07;;;;;;;8.17;6.27;;;-5.10;99.90;;;;;;4890390;29;20060;-77
2021/12/07 14:41:43;;;;;;;6.77;6.07;;;-5.20;99.90;;;;;;4888262;29;20056;-77
2021/12/07 14:44:14;;;;;;;8.07;6.93;;;-5.20;99.90;;;;;;4872533;29;20048;-77
2021/12/07 14:46:43;;;;;;;9.90;7.97;;;-5.30;99.90;;;;;;4889953;29;20076;-77